createdAt,value
2023-02-09T00:01:34.573Z,-6.70
2023-02-09T00:04:02.094Z,-6.69
2023-02-09T00:06:29.958Z,-6.66
2023-02-09T00:08:57.875Z,-6.69
2023-02-09T00:11:47.654Z,-6.71
2023-02-09T00:14:16.487Z,-6.71
2023-02-09T00:16:45.246Z,-6.75
2023-02-09T00:19:13.053Z,-6.80
2023-02-09T00:21:40.129Z,-6.83
2023-02-09T00:24:07.330Z,-6.84
2023-02-09T00:26:34.117Z,-6.87
2023-02-09T00:29:00.926Z,-6.96
2023-02-09T00:31:27.836Z,-7.02
2023-02-09T00:33:54.842Z,-7.05
2023-02-09T00:36:21.734Z,-7.10
2023-02-09T00:38:50.837Z,-7.15
2023-02-09T00:41:17.815Z,-7.18
2023-02-09T00:43:45.673Z,-7.21
2023-02-09T00:46:14.492Z,-7.33
2023-02-09T00:48:41.983Z,-7.42
2023-02-09T00:51:08.780Z,-7.57
2023-02-09T00:53:35.979Z,-7.76
2023-02-09T00:56:02.832Z,-7.95
2023-02-09T00:58:29.795Z,-8.09
2023-02-09T01:00:56.802Z,-8.19
2023-02-09T01:03:23.659Z,-8.27
2023-02-09T01:05:50.501Z,-8.32
2023-02-09T01:08:17.693Z,-8.32
2023-02-09T01:10:46.810Z,-8.34
2023-02-09T01:13:14.683Z,-8.36
2023-02-09T01:15:42.153Z,-8.33
2023-02-09T01:18:09.310Z,-8.30
2023-02-09T01:20:36.530Z,-8.25
2023-02-09T01:23:03.647Z,-8.22
2023-02-09T01:25:30.841Z,-8.16
2023-02-09T01:27:59.315Z,-8.16
2023-02-09T01:30:26.671Z,-8.18
2023-02-09T01:32:56.165Z,-8.16
2023-02-09T01:35:23.153Z,-8.15
2023-02-09T01:37:49.983Z,-8.15
2023-02-09T01:40:17.152Z,-8.14
2023-02-09T01:42:44.585Z,-8.12
2023-02-09T01:45:24.558Z,-8.06
2023-02-09T01:47:56.274Z,-8.04
2023-02-09T01:50:29.430Z,-8.02
2023-02-09T01:52:57.522Z,-7.99
2023-02-09T01:55:26.353Z,-7.95
2023-02-09T01:58:14.330Z,-7.87
2023-02-09T02:00:41.237Z,-7.79
2023-02-09T02:03:11.587Z,-7.76
2023-02-09T02:05:40.799Z,-7.73
2023-02-09T02:08:17.680Z,-7.75
2023-02-09T02:10:44.775Z,-7.79
2023-02-09T02:13:12.111Z,-7.83
2023-02-09T02:15:57.310Z,-7.87
2023-02-09T02:19:14.829Z,-7.84
2023-02-09T02:21:56.497Z,-7.84
2023-02-09T02:25:00.874Z,-7.88
2023-02-09T02:27:36.073Z,-7.89
2023-02-09T02:30:34.693Z,-7.86
2023-02-09T02:33:26.192Z,-7.82
2023-02-09T02:36:00.742Z,-7.84
2023-02-09T02:38:38.606Z,-7.85
2023-02-09T02:41:17.500Z,-7.88
2023-02-09T02:43:59.551Z,-7.89
2023-02-09T02:46:41.582Z,-7.87
2023-02-09T02:49:15.284Z,-7.85
2023-02-09T02:51:43.460Z,-7.84
2023-02-09T02:54:20.513Z,-7.77
2023-02-09T02:56:50.672Z,-7.70
2023-02-09T02:59:20.744Z,-7.69
2023-02-09T03:02:21.877Z,-7.72
2023-02-09T03:04:52.289Z,-7.76
2023-02-09T03:07:19.151Z,-7.77
2023-02-09T03:09:53.695Z,-7.78
2023-02-09T03:12:47.534Z,-7.77
2023-02-09T03:15:31.625Z,-7.75
2023-02-09T03:17:58.540Z,-7.75
2023-02-09T03:20:42.339Z,-7.78
2023-02-09T03:23:14.728Z,-7.78
2023-02-09T03:25:44.288Z,-7.73
2023-02-09T03:28:16.801Z,-7.64
2023-02-09T03:30:44.830Z,-7.62
2023-02-09T03:33:26.385Z,-7.65
2023-02-09T03:35:55.194Z,-7.70
2023-02-09T03:38:22.281Z,-7.81
2023-02-09T03:40:49.662Z,-7.88
2023-02-09T03:43:16.758Z,-7.90
2023-02-09T03:45:43.804Z,-7.95
2023-02-09T03:48:10.860Z,-7.99
2023-02-09T03:50:38.282Z,-7.94
2023-02-09T03:53:06.613Z,-7.89
2023-02-09T03:55:33.634Z,-7.85
2023-02-09T03:58:00.399Z,-7.81
2023-02-09T04:00:27.381Z,-7.76
2023-02-09T04:02:54.248Z,-7.76
2023-02-09T04:05:22.443Z,-7.82
2023-02-09T04:07:55.669Z,-7.89
2023-02-09T04:10:22.530Z,-7.95
2023-02-09T04:12:50.055Z,-8.01
2023-02-09T04:15:17.958Z,-8.08
2023-02-09T04:17:44.836Z,-8.14
2023-02-09T04:20:11.658Z,-8.14
2023-02-09T04:22:39.609Z,-8.09
2023-02-09T04:25:06.723Z,-8.00
2023-02-09T04:27:34.551Z,-7.93
2023-02-09T04:30:01.323Z,-7.91
2023-02-09T04:32:28.175Z,-7.87
2023-02-09T04:34:55.007Z,-7.80
2023-02-09T04:37:21.776Z,-7.77
2023-02-09T04:39:48.704Z,-7.70
2023-02-09T04:42:15.556Z,-7.64
2023-02-09T04:44:43.164Z,-7.66
2023-02-09T04:47:10.031Z,-7.71
2023-02-09T04:49:37.321Z,-7.73
2023-02-09T04:52:04.232Z,-7.69
2023-02-09T04:54:31.154Z,-7.63
2023-02-09T04:57:18.123Z,-7.55
2023-02-09T04:59:45.117Z,-7.51
2023-02-09T05:02:11.942Z,-7.52
2023-02-09T05:04:38.699Z,-7.51
2023-02-09T05:07:09.794Z,-7.52
2023-02-09T05:09:37.311Z,-7.60
2023-02-09T05:12:04.476Z,-7.72
2023-02-09T05:14:31.805Z,-7.83
2023-02-09T05:16:59.270Z,-7.95
2023-02-09T05:19:26.101Z,-8.07
2023-02-09T05:21:52.926Z,-8.14
2023-02-09T05:24:19.727Z,-8.16
2023-02-09T05:26:46.522Z,-8.16
2023-02-09T05:29:13.394Z,-8.17
2023-02-09T05:31:40.664Z,-8.15
2023-02-09T05:34:07.601Z,-8.10
2023-02-09T05:36:34.638Z,-8.01
2023-02-09T05:39:01.746Z,-7.88
2023-02-09T05:41:47.464Z,-7.74
2023-02-09T05:44:14.310Z,-7.59
2023-02-09T05:46:41.423Z,-7.51
2023-02-09T05:49:09.193Z,-7.45
2023-02-09T05:51:36.226Z,-7.37
2023-02-09T05:54:03.253Z,-7.28
2023-02-09T05:56:30.397Z,-7.17
2023-02-09T05:58:57.326Z,-7.04
2023-02-09T06:01:24.207Z,-6.89
2023-02-09T06:03:51.172Z,-6.77
2023-02-09T06:06:18.008Z,-6.69
2023-02-09T06:08:45.288Z,-6.65
2023-02-09T06:11:14.592Z,-6.65
2023-02-09T06:13:41.604Z,-6.62
2023-02-09T06:16:08.785Z,-6.57
2023-02-09T06:18:35.820Z,-6.50
2023-02-09T06:21:03.062Z,-6.38
2023-02-09T06:23:30.368Z,-6.25
2023-02-09T06:25:57.185Z,-6.10
2023-02-09T06:28:24.460Z,-5.95
2023-02-09T06:30:52.740Z,-5.79
2023-02-09T06:33:19.797Z,-5.60
2023-02-09T06:35:52.296Z,-5.44
2023-02-09T06:38:19.335Z,-5.28
2023-02-09T06:40:47.013Z,-5.09
2023-02-09T06:43:14.234Z,-4.85
2023-02-09T06:45:41.289Z,-4.57
2023-02-09T06:48:08.256Z,-4.26
2023-02-09T06:50:35.897Z,-3.96
2023-02-09T06:53:02.910Z,-3.69
2023-02-09T06:55:29.919Z,-3.41
2023-02-09T06:57:56.825Z,-3.18
2023-02-09T07:00:23.602Z,-2.97
2023-02-09T07:02:52.626Z,-2.83
2023-02-09T07:05:20.601Z,-2.70
2023-02-09T07:07:47.444Z,-2.58
2023-02-09T07:10:15.848Z,-2.44
2023-02-09T07:12:43.306Z,-2.32
2023-02-09T07:15:10.957Z,-2.21
2023-02-09T07:17:39.267Z,-2.05
2023-02-09T07:20:08.514Z,-1.89
2023-02-09T07:22:35.430Z,-1.75
2023-02-09T07:25:02.277Z,-1.62
2023-02-09T07:27:29.374Z,-1.56
2023-02-09T07:29:56.483Z,-1.52
2023-02-09T07:32:23.987Z,-1.44
2023-02-09T07:34:50.808Z,-1.32
2023-02-09T07:37:17.910Z,-1.20
2023-02-09T07:39:44.789Z,-1.06
2023-02-09T07:42:11.903Z,-0.96
2023-02-09T07:44:48.864Z,-0.85
2023-02-09T07:47:15.646Z,-0.84
2023-02-09T07:49:42.611Z,-0.78
2023-02-09T07:52:09.499Z,-0.71
2023-02-09T07:54:37.022Z,-0.68
2023-02-09T07:57:03.811Z,-0.56
2023-02-09T07:59:30.822Z,-0.38
2023-02-09T08:01:57.784Z,-0.30
2023-02-09T08:04:24.578Z,-0.36
2023-02-09T08:06:52.728Z,-0.34
2023-02-09T08:09:19.574Z,-0.16
2023-02-09T08:12:02.127Z,-0.02
2023-02-09T08:14:36.079Z,-0.02
2023-02-09T08:17:20.886Z,0.04
2023-02-09T08:20:15.304Z,0.18
2023-02-09T08:22:46.098Z,0.30
2023-02-09T08:25:19.092Z,0.49
2023-02-09T08:27:46.118Z,0.66
2023-02-09T08:30:14.153Z,0.82
2023-02-09T08:32:41.572Z,0.98
2023-02-09T08:35:08.462Z,1.16
2023-02-09T08:37:36.428Z,1.29
2023-02-09T08:40:03.457Z,1.42
2023-02-09T08:42:30.891Z,1.56
2023-02-09T08:44:58.711Z,1.70
2023-02-09T08:47:25.532Z,1.80
2023-02-09T08:49:52.326Z,1.85
2023-02-09T08:52:19.504Z,1.93
2023-02-09T08:54:46.519Z,1.87
2023-02-09T08:57:13.449Z,1.86
2023-02-09T08:59:40.253Z,1.81
2023-02-09T09:02:07.126Z,1.82
2023-02-09T09:04:33.995Z,1.88
2023-02-09T09:07:00.812Z,1.96
2023-02-09T09:09:27.598Z,2.02
2023-02-09T09:11:54.393Z,2.04
2023-02-09T09:14:21.750Z,2.04
2023-02-09T09:16:49.248Z,2.07
2023-02-09T09:19:16.044Z,2.16
2023-02-09T09:21:45.783Z,2.20
2023-02-09T09:24:13.441Z,2.11
2023-02-09T09:26:40.306Z,2.05
2023-02-09T09:29:07.177Z,2.08
2023-02-09T09:31:34.378Z,2.17
2023-02-09T09:34:03.381Z,2.19
2023-02-09T09:36:30.301Z,2.22
2023-02-09T09:38:57.784Z,2.32
2023-02-09T09:41:34.019Z,2.43
2023-02-09T09:44:00.922Z,2.51
2023-02-09T09:46:48.204Z,2.52
2023-02-09T09:49:23.820Z,2.54
2023-02-09T09:52:12.471Z,2.60
2023-02-09T09:54:40.211Z,2.63
2023-02-09T09:57:19.474Z,2.66
2023-02-09T09:59:46.346Z,2.62
2023-02-09T10:02:32.511Z,2.65
2023-02-09T10:05:20.799Z,2.71
2023-02-09T10:08:31.338Z,2.77
2023-02-09T10:11:35.760Z,2.82
2023-02-09T10:14:03.168Z,2.94
2023-02-09T10:16:33.916Z,3.06
2023-02-09T10:19:02.482Z,3.19
2023-02-09T10:21:32.490Z,3.31
2023-02-09T10:23:59.518Z,3.32
2023-02-09T10:26:31.704Z,3.27
2023-02-09T10:29:21.060Z,3.26
2023-02-09T10:31:54.212Z,3.33
2023-02-09T10:34:33.882Z,3.39
2023-02-09T10:37:29.080Z,3.38
2023-02-09T10:40:23.369Z,3.41
2023-02-09T10:42:55.713Z,3.45
2023-02-09T10:45:43.860Z,3.50
2023-02-09T10:48:10.864Z,3.61
2023-02-09T10:50:59.753Z,3.67
2023-02-09T10:53:33.206Z,3.76
2023-02-09T10:56:04.580Z,3.86
2023-02-09T10:58:33.584Z,3.86
2023-02-09T11:01:16.782Z,3.90
2023-02-09T11:04:19.961Z,4.00
2023-02-09T11:07:15.393Z,4.16
2023-02-09T11:09:48.354Z,4.22
2023-02-09T11:12:15.190Z,4.24
2023-02-09T11:14:46.194Z,4.24
2023-02-09T11:17:17.010Z,4.28
2023-02-09T11:19:53.317Z,4.25
2023-02-09T11:22:39.044Z,4.26
2023-02-09T11:25:24.853Z,4.29
2023-02-09T11:28:18.284Z,4.30
2023-02-09T11:31:29.983Z,4.35
2023-02-09T11:34:19.306Z,4.43
2023-02-09T11:37:16.927Z,4.46
2023-02-09T11:39:49.414Z,4.49
2023-02-09T11:42:38.679Z,4.49
2023-02-09T11:45:10.595Z,4.39
2023-02-09T11:47:46.931Z,4.37
2023-02-09T11:50:40.158Z,4.44
2023-02-09T11:53:38.169Z,4.52
2023-02-09T11:56:07.937Z,4.54
2023-02-09T11:58:53.183Z,4.56
2023-02-09T12:01:35.551Z,4.62
2023-02-09T12:04:17.753Z,4.67
2023-02-09T12:06:49.445Z,4.60
2023-02-09T12:09:25.431Z,4.46
2023-02-09T12:12:14.052Z,4.38
2023-02-09T12:14:41.218Z,4.39
2023-02-09T12:17:33.250Z,4.40
2023-02-09T12:20:00.612Z,4.38
2023-02-09T12:22:43.119Z,4.32
2023-02-09T12:25:25.021Z,4.25
2023-02-09T12:28:35.408Z,4.15
2023-02-09T12:31:08.056Z,4.09
2023-02-09T12:33:36.963Z,4.06
2023-02-09T12:36:09.988Z,4.05
2023-02-09T12:38:50.483Z,4.03
2023-02-09T12:41:21.692Z,4.05
2023-02-09T12:43:48.923Z,4.06
2023-02-09T12:46:31.277Z,4.07
2023-02-09T12:49:15.185Z,4.07
2023-02-09T12:51:54.529Z,4.10
2023-02-09T12:54:43.393Z,4.08
2023-02-09T12:57:19.496Z,4.07
2023-02-09T12:59:57.670Z,4.05
2023-02-09T13:02:49.922Z,4.03
2023-02-09T13:05:17.573Z,4.03
2023-02-09T13:08:06.206Z,3.96
2023-02-09T13:10:35.832Z,3.88
2023-02-09T13:13:03.632Z,3.87
2023-02-09T13:15:43.551Z,3.85
2023-02-09T13:18:36.781Z,3.82
2023-02-09T13:21:27.322Z,3.76
2023-02-09T13:24:14.368Z,3.73
2023-02-09T13:26:57.697Z,3.72
2023-02-09T13:29:29.371Z,3.71
2023-02-09T13:32:22.857Z,3.73
2023-02-09T13:35:27.318Z,3.73
2023-02-09T13:38:02.790Z,3.74
2023-02-09T13:40:31.354Z,3.75
2023-02-09T13:43:24.246Z,3.77
2023-02-09T13:45:52.909Z,3.76
2023-02-09T13:48:23.828Z,3.72
2023-02-09T13:50:51.684Z,3.66
2023-02-09T13:53:19.496Z,3.61
2023-02-09T13:55:47.793Z,3.60
2023-02-09T13:58:21.997Z,3.58
2023-02-09T14:00:52.184Z,3.58
2023-02-09T14:03:19.013Z,3.55
2023-02-09T14:06:00.506Z,3.54
2023-02-09T14:08:28.581Z,3.50
2023-02-09T14:11:01.995Z,3.47
2023-02-09T14:13:34.874Z,3.44
2023-02-09T14:16:08.272Z,3.42
2023-02-09T14:18:47.802Z,3.40
2023-02-09T14:21:22.659Z,3.35
2023-02-09T14:24:03.970Z,3.27
2023-02-09T14:26:48.318Z,3.32
2023-02-09T14:29:24.865Z,3.36
2023-02-09T14:32:00.159Z,3.31
2023-02-09T14:34:37.525Z,3.23
2023-02-09T14:37:11.113Z,3.09
2023-02-09T14:40:00.655Z,2.88
2023-02-09T14:42:28.608Z,2.84
2023-02-09T14:44:58.672Z,2.65
2023-02-09T14:47:34.869Z,2.51
2023-02-09T14:50:02.155Z,2.40
2023-02-09T14:52:32.145Z,2.28
2023-02-09T15:07:19.276Z,1.85
2023-02-09T15:09:48.477Z,2.13
2023-02-09T15:12:27.918Z,2.03
2023-02-09T15:14:58.860Z,1.92
2023-02-09T15:17:29.320Z,1.80
2023-02-09T15:19:58.136Z,1.70
2023-02-09T15:22:26.978Z,1.59
2023-02-09T15:24:57.836Z,1.48
2023-02-09T15:27:40.308Z,1.37
2023-02-09T15:30:17.329Z,1.29
2023-02-09T15:32:45.679Z,1.22
2023-02-09T15:35:18.297Z,1.15
2023-02-09T15:37:48.205Z,1.09
2023-02-09T15:40:43.961Z,1.04
2023-02-09T15:43:36.589Z,0.98
2023-02-09T15:46:23.938Z,0.93
2023-02-09T15:48:52.446Z,0.93
2023-02-09T15:51:21.380Z,1.00
2023-02-09T15:53:49.564Z,0.99
2023-02-09T15:56:19.067Z,0.83
2023-02-09T15:58:57.431Z,0.75
2023-02-09T16:01:26.665Z,0.69
2023-02-09T16:04:02.675Z,0.64
2023-02-09T16:06:38.680Z,0.58
2023-02-09T16:09:16.049Z,0.51
2023-02-09T16:11:45.014Z,0.46
2023-02-09T16:14:20.734Z,0.41
2023-02-09T16:16:49.639Z,0.37
2023-02-09T16:19:19.005Z,0.32
2023-02-09T16:21:50.142Z,0.29
2023-02-09T16:24:31.502Z,0.25
2023-02-09T16:27:04.979Z,0.20
2023-02-09T16:29:33.434Z,0.18
2023-02-09T16:32:01.721Z,0.15
2023-02-09T16:34:30.260Z,0.13
2023-02-09T16:36:58.865Z,0.10
2023-02-09T16:39:27.131Z,0.07
2023-02-09T16:41:57.135Z,0.03
2023-02-09T16:44:29.434Z,-0.01
2023-02-09T16:46:57.989Z,-0.05
2023-02-09T16:49:34.309Z,-0.09
2023-02-09T16:52:05.740Z,-0.15
2023-02-09T16:54:40.385Z,-0.19
2023-02-09T16:57:13.600Z,-0.25
2023-02-09T16:59:41.924Z,-0.29
2023-02-09T17:02:26.094Z,-0.35
2023-02-09T17:04:57.096Z,-0.42
2023-02-09T17:07:33.002Z,-0.49
2023-02-09T17:10:14.325Z,-0.54
2023-02-09T17:12:42.522Z,-0.58
2023-02-09T17:15:28.965Z,-0.60
2023-02-09T17:18:02.253Z,-0.61
2023-02-09T17:20:36.345Z,-0.63
2023-02-09T17:23:05.183Z,-0.65
2023-02-09T17:25:34.630Z,-0.65
2023-02-09T17:28:03.046Z,-0.69
2023-02-09T17:30:32.394Z,-0.73
2023-02-09T17:33:03.219Z,-0.77
2023-02-09T17:36:17.720Z,-0.81
2023-02-09T17:38:28.061Z,-0.86
2023-02-09T17:40:56.896Z,-0.92
2023-02-09T17:43:25.464Z,-0.96
2023-02-09T17:45:54.453Z,-1.00
2023-02-09T17:48:23.273Z,-1.04
2023-02-09T17:50:57.888Z,-1.07
2023-02-09T17:53:28.527Z,-1.10
2023-02-09T17:55:56.918Z,-1.13
2023-02-09T17:58:25.235Z,-1.15
2023-02-09T18:00:56.764Z,-1.15
2023-02-09T18:03:26.148Z,-1.18
2023-02-09T18:05:58.736Z,-1.23
2023-02-09T18:08:27.601Z,-1.26
2023-02-09T18:10:58.878Z,-1.31
2023-02-09T18:13:27.437Z,-1.35
2023-02-09T18:15:56.630Z,-1.40
2023-02-09T18:18:24.953Z,-1.45
2023-02-09T18:20:53.269Z,-1.48
2023-02-09T18:23:23.214Z,-1.52
2023-02-09T18:25:51.608Z,-1.56
2023-02-09T18:28:20.745Z,-1.59
2023-02-09T18:30:49.335Z,-1.61
2023-02-09T18:33:18.416Z,-1.60
2023-02-09T18:35:46.866Z,-1.60
2023-02-09T18:38:16.087Z,-1.59
2023-02-09T18:40:44.342Z,-1.59
2023-02-09T18:43:14.946Z,-1.61
2023-02-09T18:45:43.413Z,-1.65
2023-02-09T18:48:12.127Z,-1.71
2023-02-09T18:50:40.729Z,-1.77
2023-02-09T18:53:11.014Z,-1.84
2023-02-09T18:55:39.565Z,-1.92
2023-02-09T18:58:11.683Z,-2.00
2023-02-09T19:00:40.044Z,-2.10
2023-02-09T19:03:08.579Z,-2.17
2023-02-09T19:05:36.970Z,-2.22
2023-02-09T19:08:07.558Z,-2.28
2023-02-09T19:10:36.443Z,-2.33
2023-02-09T19:13:04.820Z,-2.37
2023-02-09T19:15:34.535Z,-2.39
2023-02-09T19:18:04.431Z,-2.41
2023-02-09T19:20:34.377Z,-2.42
2023-02-09T19:23:03.995Z,-2.43
2023-02-09T19:25:33.475Z,-2.45
2023-02-09T19:28:01.988Z,-2.47
2023-02-09T19:30:30.695Z,-2.49
2023-02-09T19:33:00.287Z,-2.50
2023-02-09T19:35:29.560Z,-2.49
2023-02-09T19:37:58.576Z,-2.50
2023-02-09T19:40:36.967Z,-2.50
2023-02-09T19:43:06.351Z,-2.52
2023-02-09T19:45:37.956Z,-2.58
2023-02-09T19:48:06.855Z,-2.65
2023-02-09T19:50:37.081Z,-2.69
2023-02-09T19:53:06.350Z,-2.74
2023-02-09T19:55:36.549Z,-2.76
2023-02-09T19:58:04.920Z,-2.79
2023-02-09T20:00:34.612Z,-2.81
2023-02-09T20:03:02.957Z,-2.85
2023-02-09T20:05:31.986Z,-2.88
2023-02-09T20:08:00.260Z,-2.90
2023-02-09T20:10:28.663Z,-2.91
2023-02-09T20:12:56.997Z,-2.97
2023-02-09T20:15:26.786Z,-3.07
2023-02-09T20:17:55.255Z,-3.11
2023-02-09T20:20:24.059Z,-3.11
2023-02-09T20:22:52.495Z,-3.10
2023-02-09T20:25:20.961Z,-3.06
2023-02-09T20:27:50.458Z,-3.02
2023-02-09T20:30:19.031Z,-2.99
2023-02-09T20:32:50.715Z,-2.95
2023-02-09T20:35:20.106Z,-2.91
2023-02-09T20:37:48.385Z,-2.87
2023-02-09T20:40:17.176Z,-2.84
2023-02-09T20:43:05.045Z,-2.84
2023-02-09T20:45:52.386Z,-2.86
2023-02-09T20:48:20.688Z,-2.86
2023-02-09T20:50:49.654Z,-2.91
2023-02-09T20:53:19.241Z,-2.94
2023-02-09T20:55:50.641Z,-2.95
2023-02-09T20:58:19.502Z,-2.93
2023-02-09T21:00:48.135Z,-2.97
2023-02-09T21:03:17.128Z,-3.00
2023-02-09T21:08:37.722Z,-3.09
2023-02-09T21:11:09.287Z,-3.13
2023-02-09T21:13:41.231Z,-3.19
2023-02-09T21:16:09.827Z,-3.24
2023-02-09T21:18:38.902Z,-3.29
2023-02-09T21:21:07.991Z,-3.32
2023-02-09T21:23:36.672Z,-3.36
2023-02-09T21:26:06.776Z,-3.40
2023-02-09T21:28:36.403Z,-3.43
2023-02-09T21:31:17.090Z,-3.45
2023-02-09T21:33:45.394Z,-3.49
2023-02-09T21:36:13.736Z,-3.53
2023-02-09T21:38:42.268Z,-3.57
2023-02-09T21:41:31.664Z,-3.59
2023-02-09T21:43:59.964Z,-3.69
2023-02-09T21:46:28.582Z,-3.82
2023-02-09T21:48:59.828Z,-3.89
2023-02-09T21:51:28.358Z,-3.94
2023-02-09T21:53:56.672Z,-3.98
2023-02-09T21:56:25.033Z,-3.99
2023-02-09T21:58:54.410Z,-4.00
2023-02-09T22:01:22.651Z,-3.99
2023-02-09T22:03:57.473Z,-4.00
2023-02-09T22:06:26.366Z,-4.05
2023-02-09T22:08:54.580Z,-4.12
2023-02-09T22:11:23.239Z,-4.18
2023-02-09T22:13:51.526Z,-4.24
2023-02-09T22:16:21.073Z,-4.32
2023-02-09T22:18:50.056Z,-4.35
2023-02-09T22:21:20.636Z,-4.37
2023-02-09T22:23:49.769Z,-4.39
2023-02-09T22:26:18.830Z,-4.37
2023-02-09T22:28:47.376Z,-4.35
2023-02-09T22:31:17.576Z,-4.41
2023-02-09T22:33:45.932Z,-4.45
2023-02-09T22:36:18.192Z,-4.50
2023-02-09T22:38:46.588Z,-4.49
2023-02-09T22:41:22.881Z,-4.49
2023-02-09T22:43:52.961Z,-4.48
2023-02-09T22:46:22.394Z,-4.48
2023-02-09T22:48:54.912Z,-4.52
2023-02-09T22:51:24.239Z,-4.56
2023-02-09T22:53:52.990Z,-4.60
2023-02-09T22:56:21.239Z,-4.63
2023-02-09T22:58:49.806Z,-4.64
2023-02-09T23:01:18.133Z,-4.64
2023-02-09T23:03:46.471Z,-4.64
2023-02-09T23:06:17.789Z,-4.62
2023-02-09T23:08:46.599Z,-4.62
2023-02-09T23:11:17.138Z,-4.63
2023-02-09T23:13:45.475Z,-4.68
2023-02-09T23:16:24.259Z,-4.77
2023-02-09T23:18:59.938Z,-4.83
2023-02-09T23:21:36.576Z,-4.87
2023-02-09T23:24:06.782Z,-4.90
2023-02-09T23:26:35.728Z,-4.92
2023-02-09T23:29:05.842Z,-4.95
2023-02-09T23:31:34.644Z,-4.99
2023-02-09T23:34:02.939Z,-5.00
2023-02-09T23:36:33.097Z,-5.02
2023-02-09T23:39:03.229Z,-5.01
2023-02-09T23:41:34.794Z,-5.02
2023-02-09T23:44:04.800Z,-5.02
2023-02-09T23:46:33.207Z,-5.06
2023-02-09T23:49:01.740Z,-5.08
2023-02-09T23:51:34.743Z,-5.06
2023-02-09T23:54:04.670Z,-5.06
2023-02-09T23:56:37.395Z,-5.05
2023-02-09T23:59:07.768Z,-5.06
